Time;durP1;ratioP1;P1;durP2;ratioP2;P2;SDS_P1;SDS_P2;PMS_P1;PMS_P2;Temp;Humidity;BMP_temperature;BMP_pressure;BME280_temperature;BME280_humidity;BME280_pressure;Samples;Min_cycle;Max_cycle;Signal;HPM_P1;HPM_P2
2021/01/09 00:02:16;;;;;;;20.70;18.73;;;;;;;;;;5035639;28;20253;-87
2021/01/09 00:04:48;;;;;;;20.47;18.47;;;;;;;;;;5053735;28;20174;-87
2021/01/09 00:07:20;;;;;;;20.40;18.50;;;;;;;;;;5053313;28;20238;-87
2021/01/09 00:09:51;;;;;;;21.50;19.30;;;;;;;;;;5053133;28;20193;-88
2021/01/09 00:12:20;;;;;;;20.70;18.70;;;;;;;;;;5035152;28;20667;-88
2021/01/09 00:14:48;;;;;;;21.20;19.20;;;;;;;;;;5034932;28;20201;-87
2021/01/09 00:17:21;;;;;;;19.43;17.70;;;;;;;;;;5035435;28;20185;-87
2021/01/09 00:19:54;;;;;;;20.67;18.67;;;;;;;;;;5034995;28;20272;-87
2021/01/09 00:22:25;;;;;;;19.97;18.07;;;;;;;;;;5052861;28;20164;-87
2021/01/09 00:24:56;;;;;;;20.57;18.40;;;;;;;;;;5053210;28;20223;-87
2021/01/09 00:27:28;;;;;;;21.67;19.47;;;;;;;;;;5035000;28;20206;-88
2021/01/09 00:30:00;;;;;;;21.57;17.57;;;;;;;;;;5035467;28;20226;-88
2021/01/09 00:32:33;;;;;;;19.60;17.70;;;;;;;;;;5035157;28;20200;-87
2021/01/09 00:35:05;;;;;;;20.00;18.13;;;;;;;;;;5034976;28;20206;-87
2021/01/09 00:37:38;;;;;;;18.70;16.80;;;;;;;;;;5053144;28;20179;-87
2021/01/09 00:40:05;;;;;;;19.33;17.47;;;;;;;;;;5053257;28;20224;-88
2021/01/09 00:42:40;;;;;;;21.10;18.90;;;;;;;;;;5035381;28;20183;-88
2021/01/09 00:45:15;;;;;;;20.43;18.43;;;;;;;;;;5035067;28;20275;-87
2021/01/09 00:47:42;;;;;;;20.93;18.73;;;;;;;;;;5052995;28;20595;-88
2021/01/09 00:50:16;;;;;;;20.47;18.47;;;;;;;;;;5037231;28;20691;-87
2021/01/09 00:52:44;;;;;;;19.77;17.77;;;;;;;;;;5039101;28;20265;-88
2021/01/09 00:55:16;;;;;;;19.70;17.83;;;;;;;;;;5056414;28;20194;-88
2021/01/09 00:57:47;;;;;;;20.73;18.73;;;;;;;;;;5056865;28;20238;-88
2021/01/09 01:00:18;;;;;;;20.10;18.20;;;;;;;;;;5038462;28;20199;-88
2021/01/09 01:02:50;;;;;;;20.60;18.27;;;;;;;;;;5056395;28;20174;-87
2021/01/09 01:05:27;;;;;;;20.10;18.07;;;;;;;;;;5058939;28;20676;-88
2021/01/09 01:08:01;;;;;;;20.80;18.80;;;;;;;;;;5039369;28;20595;-87
2021/01/09 01:10:34;;;;;;;20.17;18.03;;;;;;;;;;5039442;28;20218;-87
2021/01/09 01:13:09;;;;;;;21.17;19.03;;;;;;;;;;5057583;28;20162;-87
2021/01/09 01:15:41;;;;;;;20.53;18.33;;;;;;;;;;5039519;28;20200;-87
2021/01/09 01:18:11;;;;;;;20.50;18.43;;;;;;;;;;5038190;28;20178;-87
2021/01/09 01:20:41;;;;;;;20.93;18.83;;;;;;;;;;5038124;28;20272;-87
2021/01/09 01:23:11;;;;;;;21.57;19.47;;;;;;;;;;5038251;28;20178;-86
2021/01/09 01:25:41;;;;;;;20.30;18.30;;;;;;;;;;5037961;28;20609;-87
2021/01/09 01:28:11;;;;;;;20.10;18.10;;;;;;;;;;5056022;28;20184;-87
2021/01/09 01:30:44;;;;;;;20.57;18.57;;;;;;;;;;5038601;28;20525;-87
2021/01/09 01:33:13;;;;;;;21.53;19.23;;;;;;;;;;5056527;28;20209;-87
2021/01/09 01:35:41;;;;;;;20.13;18.10;;;;;;;;;;5038362;28;20206;-87
2021/01/09 01:38:11;;;;;;;20.87;18.87;;;;;;;;;;5038093;28;20179;-88
2021/01/09 01:40:41;;;;;;;21.23;19.13;;;;;;;;;;5037867;28;20199;-88
2021/01/09 01:43:18;;;;;;;22.17;19.30;;;;;;;;;;5056033;28;20171;-88
2021/01/09 01:45:50;;;;;;;19.83;17.93;;;;;;;;;;5037901;28;20184;-88
2021/01/09 01:48:21;;;;;;;21.80;19.40;;;;;;;;;;5056145;28;20175;-87
2021/01/09 01:50:52;;;;;;;21.47;19.27;;;;;;;;;;5037981;28;20200;-87
2021/01/09 01:53:22;;;;;;;20.13;18.10;;;;;;;;;;5037878;28;20261;-87
2021/01/09 01:55:56;;;;;;;20.90;18.77;;;;;;;;;;5037976;28;20173;-87
2021/01/09 01:58:26;;;;;;;21.60;19.67;;;;;;;;;;5056043;28;20151;-87
2021/01/09 02:00:52;;;;;;;21.53;19.23;;;;;;;;;;5038162;28;20199;-88
2021/01/09 02:03:24;;;;;;;22.07;19.97;;;;;;;;;;5055347;28;20244;-87
2021/01/09 02:06:01;;;;;;;23.07;20.77;;;;;;;;;;5038183;28;20218;-87
2021/01/09 02:08:38;;;;;;;22.17;19.97;;;;;;;;;;5038596;28;20684;-87
2021/01/09 02:11:12;;;;;;;22.10;19.87;;;;;;;;;;5037424;28;20216;-87
2021/01/09 02:13:48;;;;;;;21.27;19.10;;;;;;;;;;5038731;28;20181;-87
2021/01/09 02:16:21;;;;;;;20.67;18.73;;;;;;;;;;5039567;28;20200;-87
2021/01/09 02:18:50;;;;;;;21.80;19.50;;;;;;;;;;5039248;28;20175;-87
2021/01/09 02:21:34;;;;;;;22.63;19.10;;;;;;;;;;5057040;28;20183;-87
2021/01/09 02:24:11;;;;;;;23.07;19.80;;;;;;;;;;5039694;28;20178;-87
2021/01/09 02:26:37;;;;;;;22.30;19.97;;;;;;;;;;5037249;28;20178;-86
2021/01/09 02:29:08;;;;;;;21.13;18.93;;;;;;;;;;5037604;28;20176;-87
2021/01/09 02:31:56;;;;;;;20.70;18.60;;;;;;;;;;5038767;28;20700;-87
2021/01/09 02:34:32;;;;;;;21.77;19.53;;;;;;;;;;5038359;28;20681;-87
2021/01/09 02:37:04;;;;;;;22.63;20.33;;;;;;;;;;5042009;28;20596;-87
2021/01/09 02:39:39;;;;;;;20.80;18.77;;;;;;;;;;5042313;28;20173;-86
2021/01/09 02:42:11;;;;;;;22.40;20.10;;;;;;;;;;5041838;28;20227;-87
2021/01/09 02:44:44;;;;;;;22.47;20.20;;;;;;;;;;5041682;28;20173;-87
2021/01/09 02:47:14;;;;;;;22.83;20.53;;;;;;;;;;5041760;28;20663;-87
2021/01/09 02:49:44;;;;;;;22.17;20.00;;;;;;;;;;5040232;28;20269;-87
2021/01/09 02:52:14;;;;;;;22.73;20.53;;;;;;;;;;5057167;28;20175;-87
2021/01/09 02:54:40;;;;;;;23.23;20.97;;;;;;;;;;5057315;28;20182;-87
2021/01/09 02:57:16;;;;;;;20.50;18.60;;;;;;;;;;5039203;28;20177;-87
2021/01/09 02:59:46;;;;;;;20.80;18.70;;;;;;;;;;5039180;28;20172;-88
2021/01/09 03:02:16;;;;;;;21.83;19.73;;;;;;;;;;5056975;28;20152;-87
2021/01/09 03:04:49;;;;;;;20.47;18.43;;;;;;;;;;5039225;28;20263;-87
2021/01/09 03:07:17;;;;;;;21.30;19.23;;;;;;;;;;5039266;28;20670;-87
2021/01/09 03:09:50;;;;;;;20.40;18.50;;;;;;;;;;5038468;28;20247;-87
2021/01/09 03:12:20;;;;;;;20.97;19.07;;;;;;;;;;5038200;28;20554;-87
2021/01/09 03:14:52;;;;;;;21.53;19.63;;;;;;;;;;5038480;28;20255;-87
2021/01/09 03:17:24;;;;;;;21.50;19.43;;;;;;;;;;5056226;28;20217;-87
2021/01/09 03:19:55;;;;;;;23.37;21.13;;;;;;;;;;5038546;28;20194;-87
2021/01/09 03:22:25;;;;;;;22.27;20.20;;;;;;;;;;5038599;28;20547;-87
2021/01/09 03:24:55;;;;;;;25.43;20.47;;;;;;;;;;5057179;28;20202;-87
2021/01/09 03:27:29;;;;;;;23.33;21.03;;;;;;;;;;5038765;28;20172;-87
2021/01/09 03:30:00;;;;;;;22.63;20.33;;;;;;;;;;5056201;28;20197;-87
2021/01/09 03:32:36;;;;;;;21.27;19.17;;;;;;;;;;5056680;28;20172;-87
2021/01/09 03:35:07;;;;;;;21.97;19.73;;;;;;;;;;5038061;28;20201;-87
2021/01/09 03:37:37;;;;;;;22.23;19.97;;;;;;;;;;5038311;28;20169;-87
2021/01/09 03:40:05;;;;;;;21.40;19.20;;;;;;;;;;5038370;28;20194;-87
2021/01/09 03:42:35;;;;;;;22.87;20.57;;;;;;;;;;5038169;28;20180;-87
2021/01/09 03:45:08;;;;;;;23.00;20.70;;;;;;;;;;5038260;28;20182;-87
2021/01/09 03:47:39;;;;;;;23.80;21.40;;;;;;;;;;5038493;28;20619;-87
2021/01/09 03:50:11;;;;;;;24.07;21.67;;;;;;;;;;5056869;28;20201;-87
2021/01/09 03:52:42;;;;;;;25.00;20.13;;;;;;;;;;5056146;28;20178;-87
2021/01/09 03:55:13;;;;;;;22.13;19.83;;;;;;;;;;5038377;28;20205;-87
2021/01/09 03:57:45;;;;;;;20.77;18.67;;;;;;;;;;5056549;28;20176;-87
2021/01/09 04:00:12;;;;;;;21.37;19.10;;;;;;;;;;5055786;28;20729;-87
2021/01/09 04:02:43;;;;;;;19.47;17.53;;;;;;;;;;5038219;28;20217;-87
2021/01/09 04:05:16;;;;;;;20.27;18.17;;;;;;;;;;5038621;28;20184;-87
2021/01/09 04:07:47;;;;;;;17.87;16.03;;;;;;;;;;5038576;28;20637;-87
2021/01/09 04:10:20;;;;;;;18.83;16.97;;;;;;;;;;5038012;28;20211;-88
2021/01/09 04:12:51;;;;;;;21.27;18.07;;;;;;;;;;5038138;28;20567;-87
2021/01/09 04:15:25;;;;;;;19.40;17.50;;;;;;;;;;5038252;28;20211;-87
2021/01/09 04:17:54;;;;;;;19.23;17.33;;;;;;;;;;5038044;28;20179;-87
2021/01/09 04:20:23;;;;;;;19.93;17.93;;;;;;;;;;5038475;28;20201;-87
2021/01/09 04:22:50;;;;;;;20.27;18.20;;;;;;;;;;5038724;28;20174;-87
2021/01/09 04:25:18;;;;;;;19.93;18.03;;;;;;;;;;5042219;28;20643;-87
2021/01/09 04:27:45;;;;;;;20.47;18.37;;;;;;;;;;5042369;28;20210;-87
2021/01/09 04:30:17;;;;;;;20.40;18.40;;;;;;;;;;5042370;28;20718;-87
2021/01/09 04:32:49;;;;;;;20.93;18.43;;;;;;;;;;5043118;28;20211;-87
2021/01/09 04:35:18;;;;;;;20.97;18.90;;;;;;;;;;5043112;28;20597;-87
2021/01/09 04:37:51;;;;;;;19.83;17.83;;;;;;;;;;5042119;28;20622;-87
2021/01/09 04:40:20;;;;;;;19.30;17.30;;;;;;;;;;5042249;28;20204;-87
2021/01/09 04:42:49;;;;;;;20.33;18.23;;;;;;;;;;5042049;28;20183;-87
2021/01/09 04:45:21;;;;;;;19.87;18.03;;;;;;;;;;5042384;28;20187;-87
2021/01/09 04:47:51;;;;;;;19.13;17.23;;;;;;;;;;5060293;28;20235;-87
2021/01/09 04:50:20;;;;;;;20.93;18.77;;;;;;;;;;5041833;28;20204;-87
2021/01/09 04:52:50;;;;;;;20.40;18.43;;;;;;;;;;5041978;28;20185;-87
2021/01/09 04:55:21;;;;;;;19.93;18.03;;;;;;;;;;5059987;28;20209;-87
2021/01/09 04:57:52;;;;;;;21.40;19.30;;;;;;;;;;5041400;28;20184;-87
2021/01/09 05:00:24;;;;;;;19.97;18.00;;;;;;;;;;5059700;28;20227;-87
2021/01/09 05:02:57;;;;;;;21.03;18.93;;;;;;;;;;5042159;28;20180;-87
2021/01/09 05:05:27;;;;;;;20.80;18.83;;;;;;;;;;5041382;28;20181;-87
2021/01/09 05:08:00;;;;;;;21.43;19.33;;;;;;;;;;5059426;28;20312;-87
2021/01/09 05:10:34;;;;;;;21.00;18.90;;;;;;;;;;5045166;23;20231;-88
2021/01/09 05:13:03;;;;;;;21.37;19.20;;;;;;;;;;5037748;28;20168;-88
2021/01/09 05:15:37;;;;;;;21.27;19.17;;;;;;;;;;5039333;28;20558;-87
2021/01/09 05:18:06;;;;;;;19.87;17.97;;;;;;;;;;5039586;28;20697;-87
2021/01/09 05:20:37;;;;;;;20.97;18.87;;;;;;;;;;5038212;28;20261;-88
2021/01/09 05:23:04;;;;;;;22.43;19.50;;;;;;;;;;5038452;28;20179;-88
2021/01/09 05:25:36;;;;;;;21.13;19.13;;;;;;;;;;5038195;28;20215;-87
2021/01/09 05:28:11;;;;;;;20.10;18.10;;;;;;;;;;5037896;28;20174;-88
2021/01/09 05:30:43;;;;;;;19.37;17.37;;;;;;;;;;5038074;28;20206;-87
2021/01/09 05:33:18;;;;;;;20.33;18.33;;;;;;;;;;5038426;28;20239;-87
2021/01/09 05:35:51;;;;;;;19.83;17.93;;;;;;;;;;5037151;28;20198;-87
2021/01/09 05:38:34;;;;;;;18.90;17.00;;;;;;;;;;5038546;28;20186;-87
2021/01/09 05:41:16;;;;;;;19.83;17.73;;;;;;;;;;5038682;28;20704;-87
2021/01/09 05:43:46;;;;;;;20.27;18.37;;;;;;;;;;5039488;28;20153;-87
2021/01/09 05:46:13;;;;;;;20.27;18.13;;;;;;;;;;5037810;28;20259;-88
2021/01/09 05:48:45;;;;;;;22.97;20.63;;;;;;;;;;5038915;28;20182;-87
2021/01/09 05:51:17;;;;;;;22.60;20.33;;;;;;;;;;5038017;28;20185;-87
2021/01/09 05:53:47;;;;;;;22.10;19.73;;;;;;;;;;5038219;28;20550;-87
2021/01/09 05:56:18;;;;;;;24.37;21.73;;;;;;;;;;5039346;28;20205;-87
2021/01/09 05:58:50;;;;;;;22.63;20.17;;;;;;;;;;5037177;28;20186;-87
2021/01/09 06:01:27;;;;;;;22.17;19.80;;;;;;;;;;5038124;28;20199;-87
2021/01/09 06:04:06;;;;;;;21.50;19.23;;;;;;;;;;5038754;28;20543;-87
2021/01/09 06:06:38;;;;;;;20.53;18.03;;;;;;;;;;5038262;28;20189;-87
2021/01/09 06:09:09;;;;;;;20.43;18.43;;;;;;;;;;5039330;28;20231;-87
2021/01/09 06:11:41;;;;;;;19.20;17.30;;;;;;;;;;5038019;28;20218;-87
2021/01/09 06:14:12;;;;;;;20.27;18.07;;;;;;;;;;5038239;28;20218;-87
2021/01/09 06:16:50;;;;;;;19.77;17.77;;;;;;;;;;5038113;28;20644;-87
2021/01/09 06:19:23;;;;;;;21.20;19.00;;;;;;;;;;5037842;28;20188;-88
2021/01/09 06:21:57;;;;;;;20.03;18.13;;;;;;;;;;5039045;28;20196;-88
2021/01/09 06:24:28;;;;;;;21.53;19.30;;;;;;;;;;5037851;28;20176;-88
2021/01/09 06:27:05;;;;;;;20.40;18.50;;;;;;;;;;5037169;28;20212;-87
2021/01/09 06:29:40;;;;;;;20.67;18.53;;;;;;;;;;5037465;28;20185;-87
2021/01/09 06:32:14;;;;;;;22.67;19.33;;;;;;;;;;5037188;28;20197;-87
2021/01/09 06:34:50;;;;;;;19.03;17.00;;;;;;;;;;5036893;28;20208;-87
2021/01/09 06:37:22;;;;;;;20.10;17.67;;;;;;;;;;5036536;28;20175;-87
2021/01/09 06:39:55;;;;;;;21.13;18.43;;;;;;;;;;5037854;28;20165;-87
2021/01/09 06:42:28;;;;;;;22.00;19.60;;;;;;;;;;5036869;28;20181;-87
2021/01/09 06:45:01;;;;;;;21.27;19.07;;;;;;;;;;5037428;28;20182;-87
2021/01/09 06:47:33;;;;;;;22.03;19.73;;;;;;;;;;5036516;28;20176;-87
2021/01/09 06:50:18;;;;;;;22.50;20.20;;;;;;;;;;5038273;28;20176;-88
2021/01/09 06:52:57;;;;;;;21.73;19.43;;;;;;;;;;5037432;28;20667;-88
2021/01/09 06:55:40;;;;;;;23.57;19.33;;;;;;;;;;5038357;28;20198;-87
2021/01/09 06:58:14;;;;;;;20.23;18.07;;;;;;;;;;5036844;28;20177;-88
2021/01/09 07:00:45;;;;;;;20.10;18.00;;;;;;;;;;5037526;28;20194;-88
2021/01/09 07:03:20;;;;;;;23.77;19.83;;;;;;;;;;5036501;28;20174;-87
2021/01/09 07:05:50;;;;;;;20.87;18.67;;;;;;;;;;5036985;28;20187;-87
2021/01/09 07:08:24;;;;;;;22.00;19.70;;;;;;;;;;5036122;28;20185;-88
2021/01/09 07:11:01;;;;;;;22.27;18.73;;;;;;;;;;5037551;28;20223;-88
2021/01/09 07:13:34;;;;;;;20.67;17.50;;;;;;;;;;5036404;28;20197;-87
2021/01/09 07:16:20;;;;;;;20.60;17.50;;;;;;;;;;5037814;28;20187;-87
2021/01/09 07:18:51;;;;;;;22.43;18.87;;;;;;;;;;5036701;28;20644;-87
2021/01/09 07:21:25;;;;;;;20.60;18.33;;;;;;;;;;5036823;28;20220;-88
2021/01/09 07:23:56;;;;;;;21.20;19.00;;;;;;;;;;5037240;28;20178;-88
2021/01/09 07:26:26;;;;;;;19.13;17.13;;;;;;;;;;5035835;28;20184;-88
2021/01/09 07:28:53;;;;;;;19.07;17.13;;;;;;;;;;5035989;28;20210;-87
2021/01/09 07:31:28;;;;;;;18.83;16.90;;;;;;;;;;5036639;28;20205;-87
2021/01/09 07:34:01;;;;;;;19.77;17.70;;;;;;;;;;5037621;28;20188;-87
2021/01/09 07:36:29;;;;;;;20.07;18.00;;;;;;;;;;5037447;28;20175;-87
2021/01/09 07:39:06;;;;;;;18.33;16.43;;;;;;;;;;5037360;28;20173;-87
2021/01/09 07:41:39;;;;;;;20.23;18.00;;;;;;;;;;5037176;28;20553;-87
2021/01/09 07:44:15;;;;;;;20.37;16.90;;;;;;;;;;5037261;28;20266;-87
2021/01/09 07:47:05;;;;;;;19.83;17.73;;;;;;;;;;5036045;28;20646;-88
2021/01/09 07:49:37;;;;;;;18.47;16.63;;;;;;;;;;5036518;28;20182;-88
2021/01/09 07:52:09;;;;;;;18.13;16.27;;;;;;;;;;5035521;28;20196;-87
2021/01/09 07:54:44;;;;;;;18.73;16.83;;;;;;;;;;5035847;28;20591;-88
2021/01/09 07:57:25;;;;;;;18.87;16.87;;;;;;;;;;5035728;28;20208;-87
2021/01/09 08:00:01;;;;;;;19.27;16.83;;;;;;;;;;5036319;28;20178;-87
2021/01/09 08:02:40;;;;;;;17.80;16.10;;;;;;;;;;5036377;28;20184;-87
2021/01/09 08:05:12;;;;;;;18.60;16.87;;;;;;;;;;5037012;28;20164;-88
2021/01/09 08:07:41;;;;;;;20.20;18.07;;;;;;;;;;5035927;28;20261;-88
2021/01/09 08:10:24;;;;;;;19.77;17.53;;;;;;;;;;5035514;28;20191;-88
2021/01/09 08:12:58;;;;;;;21.63;19.43;;;;;;;;;;5036799;28;20194;-88
2021/01/09 08:15:36;;;;;;;24.53;21.03;;;;;;;;;;5035922;28;20293;-87
2021/01/09 08:18:11;;;;;;;27.17;23.60;;;;;;;;;;5035522;28;20256;-87
2021/01/09 08:20:45;;;;;;;34.47;26.60;;;;;;;;;;5036676;28;20267;-87
2021/01/09 08:23:17;;;;;;;34.13;27.33;;;;;;;;;;5035676;28;20606;-88
2021/01/09 08:25:50;;;;;;;30.83;25.00;;;;;;;;;;5037293;28;20268;-88
2021/01/09 08:28:20;;;;;;;28.57;24.20;;;;;;;;;;5035757;28;20553;-88
2021/01/09 08:30:51;;;;;;;31.47;24.83;;;;;;;;;;5035831;28;20197;-87
2021/01/09 08:33:24;;;;;;;28.00;23.63;;;;;;;;;;5035448;28;20218;-87
2021/01/09 08:35:55;;;;;;;26.47;23.53;;;;;;;;;;5037167;28;20197;-88
2021/01/09 08:38:31;;;;;;;27.47;23.13;;;;;;;;;;5036563;28;20178;-87
2021/01/09 08:41:03;;;;;;;36.00;25.97;;;;;;;;;;5035943;28;20699;-88
2021/01/09 08:43:33;;;;;;;38.00;26.90;;;;;;;;;;5036670;28;20202;-87
2021/01/09 08:46:05;;;;;;;34.97;26.00;;;;;;;;;;5035194;28;20557;-87
2021/01/09 08:48:38;;;;;;;34.43;25.10;;;;;;;;;;5034462;28;20228;-88
2021/01/09 08:51:11;;;;;;;31.10;23.67;;;;;;;;;;5035606;28;20199;-88
2021/01/09 08:53:56;;;;;;;34.10;26.33;;;;;;;;;;5034220;28;20186;-88
2021/01/09 08:56:31;;;;;;;31.03;23.80;;;;;;;;;;5034402;28;20273;-88
2021/01/09 08:59:03;;;;;;;30.67;24.50;;;;;;;;;;5033584;28;20186;-88
2021/01/09 09:01:37;;;;;;;29.07;22.40;;;;;;;;;;5034062;28;20672;-87
2021/01/09 09:04:08;;;;;;;26.27;21.43;;;;;;;;;;5032735;28;20523;-87
2021/01/09 09:06:40;;;;;;;23.97;20.57;;;;;;;;;;5032039;28;20203;-87
2021/01/09 09:09:17;;;;;;;22.57;17.70;;;;;;;;;;5033408;28;20179;-87
2021/01/09 09:11:55;;;;;;;20.03;16.97;;;;;;;;;;5036397;28;20219;-88
2021/01/09 09:14:25;;;;;;;22.23;18.20;;;;;;;;;;5035905;28;20298;-88
2021/01/09 09:17:01;;;;;;;19.63;16.43;;;;;;;;;;5036248;28;20175;-88
2021/01/09 09:19:34;;;;;;;22.43;18.40;;;;;;;;;;5037287;28;20659;-88
2021/01/09 09:22:09;;;;;;;18.10;16.30;;;;;;;;;;5040452;28;20195;-88
2021/01/09 09:24:41;;;;;;;25.47;19.97;;;;;;;;;;5039683;28;20186;-88
2021/01/09 09:27:27;;;;;;;28.47;22.57;;;;;;;;;;5039115;28;20184;-87
2021/01/09 09:30:07;;;;;;;31.03;22.83;;;;;;;;;;5039614;28;20170;-88
2021/01/09 09:32:43;;;;;;;29.83;22.03;;;;;;;;;;5038296;28;20263;-88
2021/01/09 09:35:30;;;;;;;28.70;22.23;;;;;;;;;;5037677;28;20214;-88
2021/01/09 09:38:01;;;;;;;35.03;24.70;;;;;;;;;;5038857;28;20248;-87
2021/01/09 09:40:28;;;;;;;29.17;21.87;;;;;;;;;;5038611;28;20203;-88
2021/01/09 09:43:11;;;;;;;36.67;26.37;;;;;;;;;;5040851;28;20177;-87
2021/01/09 09:45:39;;;;;;;36.43;25.00;;;;;;;;;;5038708;28;20197;-87
2021/01/09 09:48:06;;;;;;;38.60;27.23;;;;;;;;;;5039760;28;20199;-87
2021/01/09 09:50:44;;;;;;;39.87;27.33;;;;;;;;;;5039580;28;20202;-87
2021/01/09 09:53:11;;;;;;;38.30;26.73;;;;;;;;;;5038717;28;20241;-88
2021/01/09 09:55:37;;;;;;;37.37;26.07;;;;;;;;;;5039340;28;20215;-87
2021/01/09 09:58:11;;;;;;;36.27;24.33;;;;;;;;;;5039119;28;20208;-88
2021/01/09 10:00:45;;;;;;;35.23;25.93;;;;;;;;;;5039665;28;20202;-87
2021/01/09 10:03:11;;;;;;;36.13;24.47;;;;;;;;;;5040512;28;20543;-87
2021/01/09 10:05:38;;;;;;;32.37;23.27;;;;;;;;;;5039193;28;20279;-88
2021/01/09 10:08:13;;;;;;;34.17;24.97;;;;;;;;;;5038945;28;20213;-88
2021/01/09 10:10:39;;;;;;;35.60;24.37;;;;;;;;;;5040061;28;20211;-88
2021/01/09 10:13:10;;;;;;;33.10;24.03;;;;;;;;;;5039190;28;20183;-87
2021/01/09 10:15:39;;;;;;;33.23;23.80;;;;;;;;;;5039612;28;20212;-88
2021/01/09 10:18:11;;;;;;;31.90;23.90;;;;;;;;;;5037487;28;20198;-88
2021/01/09 10:20:38;;;;;;;35.80;24.00;;;;;;;;;;5039398;28;20204;-87
2021/01/09 10:23:04;;;;;;;34.70;25.53;;;;;;;;;;5043409;28;20180;-88
2021/01/09 10:25:32;;;;;;;36.37;23.87;;;;;;;;;;5041321;28;20188;-87
2021/01/09 10:27:58;;;;;;;32.53;24.53;;;;;;;;;;5041317;28;20184;-87
2021/01/09 10:30:25;;;;;;;34.57;24.90;;;;;;;;;;5041507;28;20203;-87
2021/01/09 10:32:52;;;;;;;37.83;25.53;;;;;;;;;;5042495;28;20205;-87
2021/01/09 10:35:22;;;;;;;32.67;23.93;;;;;;;;;;5042673;28;20209;-88
2021/01/09 10:37:49;;;;;;;31.80;22.43;;;;;;;;;;5042274;28;20562;-87
2021/01/09 10:40:21;;;;;;;32.27;23.63;;;;;;;;;;5041141;28;20213;-87
2021/01/09 10:42:50;;;;;;;31.73;23.00;;;;;;;;;;5040376;28;20184;-87
2021/01/09 10:45:17;;;;;;;39.73;25.70;;;;;;;;;;5040949;28;20711;-87
2021/01/09 10:47:50;;;;;;;36.63;24.20;;;;;;;;;;5040273;28;20177;-87
2021/01/09 10:50:19;;;;;;;34.60;24.47;;;;;;;;;;5041692;28;20202;-88
2021/01/09 10:52:52;;;;;;;31.93;21.77;;;;;;;;;;5040408;28;20200;-87
2021/01/09 10:55:23;;;;;;;34.47;23.33;;;;;;;;;;5038699;28;20207;-88
2021/01/09 10:57:55;;;;;;;32.47;22.27;;;;;;;;;;5035170;28;20181;-88
2021/01/09 11:00:26;;;;;;;33.83;24.27;;;;;;;;;;5034962;28;20218;-87
2021/01/09 11:02:54;;;;;;;33.13;24.17;;;;;;;;;;5036705;28;20227;-87
2021/01/09 11:05:21;;;;;;;33.50;22.20;;;;;;;;;;5035511;28;20180;-87
2021/01/09 11:07:48;;;;;;;28.73;22.17;;;;;;;;;;5036697;28;20195;-88
2021/01/09 11:10:20;;;;;;;27.67;21.07;;;;;;;;;;5036563;28;20197;-87
2021/01/09 11:12:51;;;;;;;26.67;20.90;;;;;;;;;;5044729;22;20236;-87
2021/01/09 11:15:21;;;;;;;26.70;19.93;;;;;;;;;;5036167;28;20245;-87
2021/01/09 11:17:51;;;;;;;28.33;20.30;;;;;;;;;;5036257;28;20211;-87
2021/01/09 11:20:25;;;;;;;29.40;21.30;;;;;;;;;;5036226;28;20176;-88
2021/01/09 11:22:51;;;;;;;28.20;21.70;;;;;;;;;;5036368;28;20271;-87
2021/01/09 11:25:21;;;;;;;30.83;20.03;;;;;;;;;;5036155;28;20224;-88
2021/01/09 11:27:51;;;;;;;26.53;21.13;;;;;;;;;;5053836;28;20175;-88
2021/01/09 11:30:24;;;;;;;31.70;22.13;;;;;;;;;;5053870;28;20186;-88
2021/01/09 11:32:55;;;;;;;31.63;22.70;;;;;;;;;;5035331;28;20198;-88
2021/01/09 11:35:30;;;;;;;30.37;21.53;;;;;;;;;;5035815;28;20203;-87
2021/01/09 11:38:01;;;;;;;34.33;23.30;;;;;;;;;;5035883;28;20168;-88
2021/01/09 11:40:32;;;;;;;30.37;22.20;;;;;;;;;;5035840;28;20176;-88
2021/01/09 11:43:01;;;;;;;29.03;22.00;;;;;;;;;;5035969;28;20194;-88
2021/01/09 11:45:27;;;;;;;29.73;22.73;;;;;;;;;;5035934;28;20182;-88
2021/01/09 11:47:58;;;;;;;27.20;21.13;;;;;;;;;;5053840;28;20201;-87
2021/01/09 11:50:32;;;;;;;31.00;23.57;;;;;;;;;;5035869;28;20178;-88
2021/01/09 11:53:05;;;;;;;30.53;24.63;;;;;;;;;;5035699;28;20200;-88
2021/01/09 11:55:38;;;;;;;33.37;23.53;;;;;;;;;;5035730;28;20193;-88
2021/01/09 11:58:11;;;;;;;28.73;22.83;;;;;;;;;;5035600;28;20647;-87
2021/01/09 12:00:38;;;;;;;28.83;22.60;;;;;;;;;;5053683;28;20190;-86
2021/01/09 12:03:11;;;;;;;28.97;23.27;;;;;;;;;;5035887;28;20193;-87
2021/01/09 12:05:41;;;;;;;24.87;21.50;;;;;;;;;;5035692;28;20177;-86
2021/01/09 12:08:11;;;;;;;28.80;22.07;;;;;;;;;;5035403;28;20182;-87
2021/01/09 12:10:49;;;;;;;26.67;21.63;;;;;;;;;;5053573;28;20262;-88
2021/01/09 12:13:21;;;;;;;26.07;21.47;;;;;;;;;;5053516;28;20172;-87
2021/01/09 12:15:51;;;;;;;22.40;20.03;;;;;;;;;;5035378;28;20206;-86
2021/01/09 12:18:21;;;;;;;25.40;21.13;;;;;;;;;;5053550;28;20255;-87
2021/01/09 12:20:54;;;;;;;23.40;20.63;;;;;;;;;;5053105;28;20257;-87
2021/01/09 12:23:26;;;;;;;26.83;22.30;;;;;;;;;;5053789;28;20188;-87
2021/01/09 12:25:58;;;;;;;29.73;21.77;;;;;;;;;;5035636;28;20179;-87
2021/01/09 12:28:28;;;;;;;26.60;22.07;;;;;;;;;;5053085;28;20174;-87
2021/01/09 12:30:59;;;;;;;26.40;22.23;;;;;;;;;;5053044;28;20725;-87
2021/01/09 12:33:30;;;;;;;28.53;23.40;;;;;;;;;;5035299;28;20190;-88
2021/01/09 12:36:01;;;;;;;25.23;21.70;;;;;;;;;;5035508;28;20199;-87
2021/01/09 12:38:31;;;;;;;25.93;21.90;;;;;;;;;;5035727;28;20177;-88
2021/01/09 12:41:01;;;;;;;26.30;22.43;;;;;;;;;;5053043;28;20252;-87
2021/01/09 12:43:34;;;;;;;24.77;22.07;;;;;;;;;;5052919;28;20202;-88
2021/01/09 12:46:07;;;;;;;23.67;20.43;;;;;;;;;;5039195;28;20175;-87
2021/01/09 12:48:38;;;;;;;24.33;21.73;;;;;;;;;;5040243;28;20530;-87
2021/01/09 12:51:10;;;;;;;25.90;22.50;;;;;;;;;;5038949;28;20199;-87
2021/01/09 12:53:36;;;;;;;25.60;21.77;;;;;;;;;;5038992;28;20176;-88
2021/01/09 12:56:11;;;;;;;22.67;20.33;;;;;;;;;;5056593;28;20278;-86
2021/01/09 12:58:41;;;;;;;23.10;20.23;;;;;;;;;;5038826;28;20177;-86
2021/01/09 13:01:11;;;;;;;23.73;21.17;;;;;;;;;;5038640;28;20248;-86
2021/01/09 13:03:45;;;;;;;23.27;20.40;;;;;;;;;;5056563;28;20191;-86
2021/01/09 13:06:14;;;;;;;23.77;21.33;;;;;;;;;;5038903;28;20176;-86
2021/01/09 13:08:41;;;;;;;21.80;19.57;;;;;;;;;;5038777;28;20207;-86
2021/01/09 13:11:17;;;;;;;23.13;20.67;;;;;;;;;;5056794;28;20202;-87
2021/01/09 13:13:48;;;;;;;23.37;20.93;;;;;;;;;;5038777;28;20270;-87
2021/01/09 13:16:20;;;;;;;24.50;20.83;;;;;;;;;;5056722;28;20207;-87
2021/01/09 13:18:51;;;;;;;22.67;20.27;;;;;;;;;;5038788;28;20229;-87
2021/01/09 13:21:20;;;;;;;22.53;20.13;;;;;;;;;;5038354;28;20622;-87
2021/01/09 13:23:51;;;;;;;23.93;21.30;;;;;;;;;;5038443;28;20218;-87
2021/01/09 13:26:21;;;;;;;22.60;20.23;;;;;;;;;;5056211;28;20177;-87
2021/01/09 13:28:54;;;;;;;24.30;21.80;;;;;;;;;;5038334;28;20228;-87
2021/01/09 13:31:25;;;;;;;22.03;19.73;;;;;;;;;;5055987;28;20614;-87
2021/01/09 13:33:58;;;;;;;23.40;21.00;;;;;;;;;;5038581;28;20203;-87
2021/01/09 13:36:33;;;;;;;23.93;21.43;;;;;;;;;;5056054;28;20202;-87
2021/01/09 13:39:06;;;;;;;24.27;21.07;;;;;;;;;;5038091;28;20176;-87
2021/01/09 13:41:39;;;;;;;22.03;19.77;;;;;;;;;;5056107;28;20197;-87
2021/01/09 13:44:11;;;;;;;23.50;21.00;;;;;;;;;;5037929;28;20174;-87
2021/01/09 13:46:43;;;;;;;23.10;20.10;;;;;;;;;;5038074;28;20175;-87
2021/01/09 13:49:15;;;;;;;23.53;20.67;;;;;;;;;;5037909;28;20657;-87
2021/01/09 13:51:49;;;;;;;25.80;21.77;;;;;;;;;;5037727;28;20689;-87
2021/01/09 13:54:15;;;;;;;21.53;19.27;;;;;;;;;;5055586;28;20705;-87
2021/01/09 13:56:43;;;;;;;22.10;19.87;;;;;;;;;;5055209;28;20170;-87
2021/01/09 13:59:11;;;;;;;29.70;19.97;;;;;;;;;;5037577;28;20171;-87
2021/01/09 14:01:38;;;;;;;23.60;21.03;;;;;;;;;;5037825;28;20224;-87
2021/01/09 14:04:05;;;;;;;25.33;21.27;;;;;;;;;;5038205;28;20182;-87
2021/01/09 14:06:36;;;;;;;23.70;19.87;;;;;;;;;;5037903;28;20600;-87
2021/01/09 14:09:05;;;;;;;24.60;20.93;;;;;;;;;;5037585;28;20212;-87
2021/01/09 14:11:31;;;;;;;22.77;20.37;;;;;;;;;;5055279;28;20219;-87
2021/01/09 14:13:58;;;;;;;22.47;20.03;;;;;;;;;;5037545;28;20642;-87
2021/01/09 14:16:29;;;;;;;22.20;19.90;;;;;;;;;;5037555;28;20186;-87
2021/01/09 14:18:58;;;;;;;21.90;19.53;;;;;;;;;;5037878;28;20204;-87
2021/01/09 14:21:25;;;;;;;22.50;20.07;;;;;;;;;;5037414;28;20197;-87
2021/01/09 14:23:52;;;;;;;21.43;19.17;;;;;;;;;;5055134;28;20179;-87
2021/01/09 14:26:22;;;;;;;21.73;19.43;;;;;;;;;;5037571;28;20178;-88
2021/01/09 14:28:52;;;;;;;22.73;20.43;;;;;;;;;;5037739;28;20178;-87
2021/01/09 14:31:21;;;;;;;21.67;19.40;;;;;;;;;;5037048;28;20207;-87
2021/01/09 14:33:50;;;;;;;23.03;20.73;;;;;;;;;;5037173;28;20179;-87
2021/01/09 14:36:20;;;;;;;23.63;21.27;;;;;;;;;;5036937;28;20254;-87
2021/01/09 14:38:46;;;;;;;23.77;20.07;;;;;;;;;;5037171;28;20750;-87
2021/01/09 14:41:15;;;;;;;27.53;20.40;;;;;;;;;;5054831;28;20707;-87
2021/01/09 14:43:43;;;;;;;23.23;20.73;;;;;;;;;;5037137;28;20716;-87